Huntersville, North Carolina
Current Conditions -  °F | °C
As of 8:55 PM on Monday 24 Nov 2014 (Local Time) from KJQF Reporting Station
Clear Clear  
Wind Chill: 66°   Ceiling: Unl
Heat Index: 66°   Visibility: 10mi
Dew Point: 61°   Wind: 8mph
Humidity: 83%   Direction: 190°S
Pressure: 29.91"   Gusts: NA
Location:  35.42°N, 80.85°W
Report Text: KJQF 250155Z 19007KT 10SM CLR 19/16 A2991
Loading
Personal Weather Stations






























Interactive Weather Map New forecast layout! Learn more

10-Day Weather Forecast

Advertisements
Track Severe Weather on mobile